Time;durP1;ratioP1;P1;durP2;ratioP2;P2;SDS_P1;SDS_P2;PMS_P1;PMS_P2;Temp;Humidity;BMP_temperature;BMP_pressure;BME280_temperature;BME280_humidity;BME280_pressure;Samples;Min_cycle;Max_cycle;Signal;HPM_P1;HPM_P2
2023/05/07 00:00:24;;;;;;;8.43;5.67;;;;;;;8.25;85.10;101527.25;4994692;28;20239;-70
2023/05/07 00:02:50;;;;;;;8.20;5.57;;;;;;;8.26;84.58;101528.00;4998945;28;20204;-71
2023/05/07 00:05:18;;;;;;;6.37;5.17;;;;;;;8.25;84.56;101522.00;4999509;28;20208;-70
2023/05/07 00:07:45;;;;;;;6.20;5.00;;;;;;;8.26;85.14;101517.50;4999776;28;22588;-71
2023/05/07 00:10:12;;;;;;;6.07;5.23;;;;;;;8.26;85.16;101531.44;4996662;28;21065;-70
2023/05/07 00:12:38;;;;;;;6.73;5.43;;;;;;;8.27;85.14;101519.84;4989986;28;20228;-70
2023/05/07 00:15:06;;;;;;;7.50;6.07;;;;;;;8.24;84.72;101517.78;4992943;28;20217;-70
2023/05/07 00:17:34;;;;;;;8.73;6.50;;;;;;;8.26;85.31;101520.91;5003792;28;20204;-71
2023/05/07 00:20:35;;;;;;;6.57;5.20;;;;;;;8.24;85.59;101517.78;5002708;28;20919;-71
2023/05/07 00:23:04;;;;;;;7.50;5.17;;;;;;;8.25;85.61;101521.19;5005802;28;20578;-70
2023/05/07 00:25:30;;;;;;;7.27;5.53;;;;;;;8.24;85.29;101519.63;4998695;28;20212;-71
2023/05/07 00:27:57;;;;;;;6.13;5.53;;;;;;;8.24;85.51;101530.94;5005119;28;20214;-71
2023/05/07 00:30:23;;;;;;;6.03;5.27;;;;;;;8.23;85.32;101534.63;4997771;28;20231;-70
2023/05/07 00:32:50;;;;;;;7.97;5.77;;;;;;;8.23;84.64;101532.00;4999128;28;20706;-70
2023/05/07 00:35:17;;;;;;;6.50;5.60;;;;;;;8.23;85.06;101534.63;5002870;28;20232;-70
2023/05/07 00:37:46;;;;;;;5.83;5.00;;;;;;;8.23;85.60;101533.88;5000747;28;20219;-70
2023/05/07 00:40:12;;;;;;;9.07;6.37;;;;;;;8.23;85.09;101533.88;4998770;28;21144;-70
2023/05/07 00:42:39;;;;;;;6.93;5.27;;;;;;;8.23;85.64;101533.88;5000416;28;20200;-69
2023/05/07 00:45:07;;;;;;;7.83;5.50;;;;;;;8.22;85.12;101535.72;5018670;28;20203;-70
2023/05/07 00:47:34;;;;;;;10.20;6.50;;;;;;;8.22;85.63;101538.34;5005218;28;20213;-70
2023/05/07 00:50:00;;;;;;;6.53;5.80;;;;;;;8.22;85.37;101533.06;5002001;28;20743;-71
2023/05/07 00:52:31;;;;;;;6.60;4.97;;;;;;;8.22;85.26;101533.06;5000032;28;20220;-71
2023/05/07 00:55:05;;;;;;;6.77;5.63;;;;;;;8.22;85.19;101543.59;5004272;28;20223;-70
2023/05/07 00:57:33;;;;;;;9.30;5.23;;;;;;;8.23;85.33;101541.75;5001676;28;20207;-71
2023/05/07 01:00:00;;;;;;;7.80;5.43;;;;;;;8.22;85.15;101538.34;4992124;28;20228;-71
2023/05/07 01:02:27;;;;;;;5.77;5.03;;;;;;;8.22;85.60;101543.59;4999027;28;20575;-70
2023/05/07 01:05:11;;;;;;;6.50;5.63;;;;;;;8.20;85.69;101543.13;5002036;28;20628;-71
2023/05/07 01:07:40;;;;;;;6.73;5.73;;;;;;;8.22;85.15;101537.53;5013640;28;20204;-71
2023/05/07 01:10:10;;;;;;;8.23;5.80;;;;;;;8.20;85.20;101543.13;4998716;28;20236;-69
2023/05/07 01:12:38;;;;;;;7.60;5.77;;;;;;;8.20;85.45;101537.06;5016286;28;20228;-70
2023/05/07 01:15:06;;;;;;;7.23;5.53;;;;;;;8.19;85.21;101538.88;4999995;28;20709;-71
2023/05/07 01:17:34;;;;;;;7.57;5.33;;;;;;;8.20;85.74;101540.47;5016285;28;20810;-70
2023/05/07 01:20:01;;;;;;;12.17;6.70;;;;;;;8.19;85.36;101544.13;5018216;28;20220;-69
2023/05/07 01:22:32;;;;;;;9.90;6.33;;;;;;;8.19;85.13;101546.75;5010012;28;20593;-70
2023/05/07 01:24:59;;;;;;;8.20;6.30;;;;;;;8.20;85.49;101545.75;5016106;28;20577;-69
2023/05/07 01:27:29;;;;;;;10.27;6.53;;;;;;;8.20;85.62;101545.75;5015115;28;20723;-70
2023/05/07 01:29:56;;;;;;;10.27;6.57;;;;;;;8.21;85.04;101543.88;4995202;28;20235;-69
2023/05/07 01:32:29;;;;;;;9.13;7.00;;;;;;;8.20;85.03;101545.75;5012295;28;20614;-70
2023/05/07 01:34:56;;;;;;;8.87;6.53;;;;;;;8.21;85.08;101549.94;5015225;28;20213;-69
2023/05/07 01:37:47;;;;;;;10.43;6.93;;;;;;;8.21;85.54;101549.94;4998604;28;20215;-70
2023/05/07 01:40:14;;;;;;;11.43;6.73;;;;;;;8.21;85.66;101543.88;5000429;28;20233;-70
2023/05/07 01:42:44;;;;;;;8.53;6.57;;;;;;;8.21;85.02;101544.66;5012050;28;20758;-69
2023/05/07 01:45:28;;;;;;;13.17;7.30;;;;;;;8.21;85.74;101544.66;5015779;28;20215;-71
2023/05/07 01:47:56;;;;;;;11.07;7.10;;;;;;;8.21;85.48;101544.66;5001999;28;20224;-69
2023/05/07 01:50:22;;;;;;;9.60;7.30;;;;;;;8.22;85.66;101540.19;5014866;28;21116;-70
2023/05/07 01:52:51;;;;;;;10.50;7.37;;;;;;;8.21;85.48;101543.88;5011249;28;20232;-71
2023/05/07 01:55:18;;;;;;;11.60;7.63;;;;;;;8.21;85.28;101549.94;5014772;28;20744;-70
2023/05/07 01:57:44;;;;;;;10.50;7.40;;;;;;;8.21;85.23;101544.66;4993831;28;20231;-70
2023/05/07 02:00:12;;;;;;;9.53;7.63;;;;;;;8.22;85.13;101553.34;4994166;28;20232;-70
2023/05/07 02:02:45;;;;;;;10.33;7.53;;;;;;;8.23;85.24;101550.41;4998704;28;20216;-70
2023/05/07 02:05:24;;;;;;;12.57;7.80;;;;;;;8.24;85.78;101551.22;5019865;28;20205;-71
2023/05/07 02:07:58;;;;;;;10.10;7.47;;;;;;;8.22;85.49;101554.13;4996598;28;20228;-71
2023/05/07 02:10:27;;;;;;;12.53;7.80;;;;;;;8.22;85.85;101556.75;4988105;28;20228;-70
2023/05/07 02:12:53;;;;;;;12.47;7.77;;;;;;;8.23;85.97;101555.69;4998140;28;20313;-70
2023/05/07 02:15:20;;;;;;;14.93;8.07;;;;;;;8.23;85.47;101549.66;5001218;28;20574;-71
2023/05/07 02:18:00;;;;;;;13.73;8.70;;;;;;;8.22;85.43;101551.50;5015877;28;20228;-70
2023/05/07 02:20:27;;;;;;;14.10;8.67;;;;;;;8.24;85.59;101551.22;5014516;28;20717;-70
2023/05/07 02:22:54;;;;;;;9.83;8.17;;;;;;;8.24;86.06;101551.97;5000487;28;20213;-71
2023/05/07 02:25:22;;;;;;;14.37;9.17;;;;;;;8.24;86.15;101546.72;4998938;28;20293;-70
2023/05/07 02:27:48;;;;;;;13.90;8.43;;;;;;;8.24;85.84;101549.34;5014665;28;20682;-70
2023/05/07 02:30:16;;;;;;;10.53;7.90;;;;;;;8.24;86.09;101546.72;5002149;28;20225;-70
2023/05/07 02:32:43;;;;;;;11.87;8.27;;;;;;;8.25;85.68;101547.50;5002066;28;20752;-70
2023/05/07 02:35:10;;;;;;;14.33;8.93;;;;;;;8.23;85.85;101555.69;5000652;28;20223;-70
2023/05/07 02:37:37;;;;;;;13.80;8.83;;;;;;;8.24;85.59;101556.47;5011042;28;20263;-70
2023/05/07 02:40:04;;;;;;;11.87;8.10;;;;;;;8.23;84.99;101554.91;5004269;28;20729;-70
2023/05/07 02:42:32;;;;;;;12.30;8.70;;;;;;;8.23;85.64;101562.81;4999786;28;20209;-70
2023/05/07 02:44:59;;;;;;;13.60;8.43;;;;;;;8.23;86.04;101560.19;4999646;28;21562;-69
2023/05/07 02:47:27;;;;;;;11.83;8.90;;;;;;;8.23;85.60;101565.44;5014175;28;20223;-69
2023/05/07 02:49:54;;;;;;;12.93;8.37;;;;;;;8.22;86.18;101569.13;5000797;28;20233;-70
2023/05/07 02:52:21;;;;;;;14.90;9.30;;;;;;;8.21;86.03;101563.09;5003776;28;20928;-70
2023/05/07 02:54:47;;;;;;;15.73;9.67;;;;;;;8.22;85.55;101562.00;5004747;28;20766;-70
2023/05/07 02:57:14;;;;;;;14.90;8.93;;;;;;;8.22;85.54;101563.84;4999553;28;20208;-70
2023/05/07 02:59:42;;;;;;;13.80;9.47;;;;;;;8.21;86.11;101557.81;4998864;28;20306;-69
2023/05/07 03:02:09;;;;;;;15.63;9.23;;;;;;;8.20;85.54;101561.53;4996745;28;20205;-69
2023/05/07 03:04:36;;;;;;;15.67;8.97;;;;;;;8.21;85.87;101563.09;5019682;28;20205;-69
2023/05/07 03:07:03;;;;;;;15.80;9.77;;;;;;;8.20;85.69;101563.38;4998527;28;20278;-69
2023/05/07 03:09:29;;;;;;;14.27;9.67;;;;;;;8.20;86.03;101558.91;5000743;28;20232;-70
2023/05/07 03:11:56;;;;;;;12.97;9.73;;;;;;;8.19;85.71;101562.53;5013116;28;20208;-71
2023/05/07 03:14:26;;;;;;;13.83;9.30;;;;;;;8.19;85.14;101569.66;5002908;28;20279;-70
2023/05/07 03:16:54;;;;;;;16.13;8.93;;;;;;;8.19;85.94;101567.81;5001560;28;20543;-70
2023/05/07 03:19:21;;;;;;;13.23;8.60;;;;;;;8.18;85.69;101561.00;5013611;28;20251;-70
2023/05/07 03:21:48;;;;;;;13.77;8.97;;;;;;;8.18;85.14;101568.13;4996892;28;20204;-70
2023/05/07 03:24:14;;;;;;;18.00;9.47;;;;;;;8.17;85.14;101572.59;4995276;28;20209;-70
2023/05/07 03:26:42;;;;;;;11.73;9.30;;;;;;;8.18;85.41;101568.13;5016068;28;20192;-70
2023/05/07 03:29:09;;;;;;;14.63;9.30;;;;;;;8.19;85.83;101572.31;4998653;28;20224;-70
2023/05/07 03:31:35;;;;;;;14.27;8.73;;;;;;;8.19;85.75;101580.19;4999199;28;20871;-70
2023/05/07 03:34:03;;;;;;;18.00;9.80;;;;;;;8.16;85.90;101570.22;4994477;28;20696;-70
2023/05/07 03:36:30;;;;;;;13.37;9.03;;;;;;;8.16;85.24;101580.75;4998018;28;20587;-70
2023/05/07 03:38:57;;;;;;;11.83;8.73;;;;;;;8.16;85.41;101586.00;4990379;28;20659;-70
2023/05/07 03:41:26;;;;;;;15.17;8.90;;;;;;;8.15;85.32;101585.25;5002388;28;21625;-70
2023/05/07 03:43:54;;;;;;;11.80;8.50;;;;;;;8.15;85.52;101589.72;5010866;28;20270;-70
2023/05/07 03:46:21;;;;;;;13.07;9.37;;;;;;;8.14;85.31;101591.56;4989086;28;21591;-69
2023/05/07 03:48:48;;;;;;;13.97;8.17;;;;;;;8.13;85.82;101592.63;4986833;28;22441;-69
2023/05/07 03:51:16;;;;;;;15.47;8.87;;;;;;;8.13;85.97;101597.13;5002532;28;20207;-70
2023/05/07 03:53:43;;;;;;;15.20;8.83;;;;;;;8.12;86.12;101598.97;5011107;28;20220;-70
2023/05/07 03:56:09;;;;;;;11.57;8.43;;;;;;;8.12;85.61;101596.31;5003088;28;20200;-70
2023/05/07 03:58:39;;;;;;;10.70;8.23;;;;;;;8.12;86.23;101595.56;4998679;28;20208;-69
2023/05/07 04:01:32;;;;;;;10.63;8.60;;;;;;;8.10;86.03;101597.69;5002899;28;20213;-71
2023/05/07 04:03:59;;;;;;;10.73;8.33;;;;;;;8.09;86.08;101598.75;5015319;28;20208;-70
2023/05/07 04:06:28;;;;;;;13.73;9.30;;;;;;;8.09;85.32;101594.28;4999330;28;20207;-71
2023/05/07 04:08:54;;;;;;;14.47;9.50;;;;;;;8.09;85.59;101590.84;5015632;28;20232;-70
2023/05/07 04:11:21;;;;;;;12.50;8.43;;;;;;;8.07;85.61;101600.88;5003872;28;20297;-70
2023/05/07 04:13:47;;;;;;;13.43;9.40;;;;;;;8.08;85.82;101599.81;5013705;28;20209;-70
2023/05/07 04:16:16;;;;;;;17.53;8.80;;;;;;;8.06;85.71;101608.00;5005467;28;20234;-69
2023/05/07 04:18:46;;;;;;;11.20;8.40;;;;;;;8.06;85.88;101605.34;5003140;28;20310;-70
2023/05/07 04:21:16;;;;;;;11.53;8.50;;;;;;;8.07;86.14;101614.03;5014393;28;20578;-70
2023/05/07 04:23:45;;;;;;;20.23;10.10;;;;;;;8.07;85.71;101614.03;5013175;28;20634;-70
2023/05/07 04:26:13;;;;;;;14.90;9.37;;;;;;;8.06;85.71;101610.63;5017458;28;20209;-70
2023/05/07 04:28:43;;;;;;;14.77;9.33;;;;;;;8.07;85.92;101619.31;5001628;28;20228;-70
2023/05/07 04:31:10;;;;;;;11.67;8.40;;;;;;;8.06;85.67;101613.25;5014466;28;20205;-70
2023/05/07 04:33:39;;;;;;;14.87;9.43;;;;;;;8.07;86.34;101612.19;5016348;28;20290;-71
2023/05/07 04:36:09;;;;;;;15.37;11.07;;;;;;;8.08;86.16;101626.88;5001436;28;20586;-70
2023/05/07 04:38:42;;;;;;;15.83;9.13;;;;;;;8.09;86.16;101632.94;5001048;28;20205;-69
2023/05/07 04:41:11;;;;;;;12.77;9.30;;;;;;;8.10;85.71;101634.50;5000835;28;20207;-69
2023/05/07 04:43:41;;;;;;;14.73;9.63;;;;;;;8.10;85.71;101637.13;5013719;28;20299;-70
2023/05/07 04:46:08;;;;;;;16.17;8.80;;;;;;;8.12;85.41;101643.69;5006039;28;20561;-70
2023/05/07 04:48:35;;;;;;;14.37;8.60;;;;;;;8.13;85.54;101639.22;5016521;28;20214;-70
2023/05/07 04:51:04;;;;;;;12.80;9.53;;;;;;;8.16;86.36;101641.25;5016319;28;20212;-70
2023/05/07 04:53:30;;;;;;;12.40;9.00;;;;;;;8.16;85.60;101649.94;5016272;28;20593;-70
2023/05/07 04:55:58;;;;;;;12.30;7.97;;;;;;;8.15;85.93;101645.75;5000785;28;20878;-69
2023/05/07 04:58:38;;;;;;;12.53;9.07;;;;;;;8.15;85.64;101648.38;5001113;28;20673;-70
2023/05/07 05:01:05;;;;;;;12.67;9.50;;;;;;;8.14;85.12;101659.19;5017700;28;20784;-70
2023/05/07 05:03:31;;;;;;;13.43;9.00;;;;;;;8.14;84.88;101652.06;5007265;28;20420;-69
2023/05/07 05:05:59;;;;;;;10.90;8.10;;;;;;;8.14;85.24;101651.28;4999702;28;20299;-70
2023/05/07 05:08:27;;;;;;;13.40;9.37;;;;;;;8.11;84.64;101652.66;5020467;28;20228;-71
2023/05/07 05:10:53;;;;;;;11.07;7.87;;;;;;;8.12;83.89;101656.06;5015559;28;20211;-70
2023/05/07 05:13:21;;;;;;;10.77;7.63;;;;;;;8.11;83.46;101654.47;5004707;28;20227;-70
2023/05/07 05:15:49;;;;;;;11.60;7.73;;;;;;;8.12;84.48;101656.84;5000734;28;20277;-70
2023/05/07 05:18:15;;;;;;;9.30;7.57;;;;;;;8.13;84.51;101657.63;5016275;28;20459;-70
2023/05/07 05:20:42;;;;;;;9.57;7.17;;;;;;;8.12;84.06;101669.22;5015395;28;20232;-71
2023/05/07 05:23:08;;;;;;;13.30;8.00;;;;;;;8.12;83.66;101666.59;5000324;28;20197;-70
2023/05/07 05:25:35;;;;;;;11.23;7.33;;;;;;;8.16;84.56;101664.94;4997340;28;20300;-70
2023/05/07 05:28:02;;;;;;;10.33;6.57;;;;;;;8.17;84.39;101669.13;5014254;28;20591;-70
2023/05/07 05:30:30;;;;;;;9.17;7.30;;;;;;;8.15;84.30;101664.16;5009637;28;20754;-69
2023/05/07 05:32:58;;;;;;;12.50;8.07;;;;;;;8.19;83.93;101674.91;5009567;28;20213;-70
2023/05/07 05:35:26;;;;;;;13.70;7.90;;;;;;;8.22;84.43;101672.53;4995704;28;20195;-70
2023/05/07 05:37:53;;;;;;;10.97;8.27;;;;;;;8.21;84.68;101676.22;4997919;28;20219;-70
2023/05/07 05:40:20;;;;;;;14.47;7.87;;;;;;;8.21;83.68;101678.84;4992185;28;20263;-69
2023/05/07 05:42:47;;;;;;;11.97;8.07;;;;;;;8.22;83.88;101683.03;5015411;28;20224;-69
2023/05/07 05:45:14;;;;;;;9.43;7.43;;;;;;;8.26;84.45;101696.41;5012325;28;20204;-71
2023/05/07 05:47:42;;;;;;;10.33;7.23;;;;;;;8.26;84.30;101693.78;5014656;28;20203;-69
2023/05/07 05:50:10;;;;;;;10.70;7.50;;;;;;;8.29;84.60;101687.97;4994177;28;20256;-70
2023/05/07 05:52:36;;;;;;;14.30;8.40;;;;;;;8.30;84.26;101685.06;5001788;28;20208;-69
2023/05/07 05:55:03;;;;;;;10.70;7.20;;;;;;;8.34;84.34;101693.16;5013381;28;20209;-70
2023/05/07 05:57:30;;;;;;;11.27;8.00;;;;;;;8.37;83.76;101687.31;4999357;28;20201;-70
2023/05/07 05:59:57;;;;;;;8.83;7.00;;;;;;;8.42;83.60;101682.00;4998301;28;20244;-69
2023/05/07 06:02:24;;;;;;;10.27;7.53;;;;;;;8.45;83.97;101681.44;5013072;28;20744;-70
2023/05/07 06:04:51;;;;;;;9.80;7.00;;;;;;;8.48;82.92;101681.63;5010853;28;20240;-69
2023/05/07 06:07:21;;;;;;;10.20;6.47;;;;;;;8.53;84.23;101678.16;5014220;28;20227;-70
2023/05/07 06:09:50;;;;;;;10.00;7.43;;;;;;;8.55;82.68;101676.03;4999068;28;20316;-70
2023/05/07 06:12:17;;;;;;;7.73;6.60;;;;;;;8.55;82.20;101682.06;4998317;28;20288;-70
2023/05/07 06:14:43;;;;;;;11.03;7.07;;;;;;;8.62;83.51;101692.25;4998864;28;20331;-70
2023/05/07 06:17:11;;;;;;;10.40;6.73;;;;;;;8.64;83.97;101688.25;5011909;28;20213;-70
2023/05/07 06:19:37;;;;;;;10.00;6.93;;;;;;;8.64;82.24;101688.25;5003947;28;20297;-70
2023/05/07 06:22:05;;;;;;;7.93;6.20;;;;;;;8.67;82.52;101685.06;5014209;28;20203;-68
2023/05/07 06:24:34;;;;;;;10.07;6.77;;;;;;;8.67;83.11;101692.97;5009936;28;20213;-69
2023/05/07 06:27:01;;;;;;;10.10;6.90;;;;;;;8.69;81.53;101700.59;4999354;28;20770;-70
2023/05/07 06:29:31;;;;;;;9.17;6.87;;;;;;;8.71;82.08;101703.72;5021656;28;20760;-70
2023/05/07 06:32:07;;;;;;;9.40;7.07;;;;;;;8.72;82.08;101702.63;5014660;28;20198;-70
2023/05/07 06:34:33;;;;;;;7.77;6.37;;;;;;;8.74;82.55;101703.13;5014578;28;20276;-70
2023/05/07 06:37:01;;;;;;;8.97;6.73;;;;;;;8.77;82.50;101703.34;4999548;28;20232;-70
2023/05/07 06:39:42;;;;;;;9.47;7.53;;;;;;;8.80;82.80;101710.66;5005964;28;20307;-70
2023/05/07 06:42:09;;;;;;;9.80;6.87;;;;;;;8.83;83.14;101712.75;5007238;28;20209;-70
2023/05/07 06:44:41;;;;;;;8.23;6.43;;;;;;;8.88;83.89;101709.25;5000900;28;20700;-70
2023/05/07 06:47:10;;;;;;;9.47;6.57;;;;;;;8.88;82.33;101714.50;5001734;28;20211;-69
2023/05/07 06:49:39;;;;;;;10.23;6.63;;;;;;;8.90;82.21;101715.78;5007148;28;20223;-69
2023/05/07 06:52:05;;;;;;;10.80;7.00;;;;;;;8.93;82.70;101725.75;5012138;28;20209;-69
2023/05/07 06:54:32;;;;;;;9.50;6.23;;;;;;;8.92;81.51;101736.56;5004565;28;20702;-70
2023/05/07 06:57:00;;;;;;;8.83;6.43;;;;;;;8.90;80.32;101741.34;5001990;28;20213;-70
2023/05/07 06:59:28;;;;;;;8.20;6.57;;;;;;;8.93;81.08;101743.41;4998674;28;20228;-69
2023/05/07 07:01:55;;;;;;;10.40;6.93;;;;;;;8.92;80.02;101739.22;4994193;28;20211;-69
2023/05/07 07:04:22;;;;;;;9.57;7.10;;;;;;;8.94;80.58;101743.13;5008336;28;20667;-70
2023/05/07 07:06:56;;;;;;;11.93;6.50;;;;;;;8.97;81.07;101752.31;5008451;28;20219;-68
2023/05/07 07:09:23;;;;;;;8.63;6.53;;;;;;;8.98;81.83;101748.59;5001149;28;20825;-70
2023/05/07 07:11:49;;;;;;;7.60;6.17;;;;;;;9.01;82.19;101748.81;5013721;28;20590;-70
2023/05/07 07:14:17;;;;;;;8.17;5.73;;;;;;;9.02;82.08;101750.41;5000411;28;20635;-70
2023/05/07 07:16:48;;;;;;;10.83;5.97;;;;;;;9.05;82.53;101756.91;4991367;28;20209;-69
2023/05/07 07:19:17;;;;;;;9.83;6.60;;;;;;;9.08;80.45;101756.34;4993624;28;20253;-70
2023/05/07 07:22:02;;;;;;;8.70;6.37;;;;;;;9.13;81.82;101758.91;4995996;28;20210;-69
2023/05/07 07:27:34;;;;;;;11.23;6.87;;;;;;;9.19;80.13;101760.41;4981151;28;20605;-70
2023/05/07 07:30:02;;;;;;;11.17;6.80;;;;;;;9.21;81.61;101756.41;5000400;28;20241;-69
2023/05/07 07:32:33;;;;;;;9.93;6.27;;;;;;;9.19;79.41;101755.13;5001423;28;20205;-70
2023/05/07 07:35:00;;;;;;;12.50;7.80;;;;;;;9.19;79.26;101750.66;5016483;28;20268;-68
2023/05/07 07:37:27;;;;;;;8.20;6.30;;;;;;;9.23;79.78;101751.66;5004537;28;20288;-69
2023/05/07 07:39:54;;;;;;;17.73;10.00;;;;;;;9.25;81.10;101746.88;5016694;28;20795;-70
2023/05/07 07:42:21;;;;;;;25.17;14.40;;;;;;;9.30;82.49;101746.00;5000718;28;20267;-68
2023/05/07 07:44:48;;;;;;;15.23;9.50;;;;;;;9.33;80.72;101740.94;5020459;28;20205;-69
2023/05/07 07:47:19;;;;;;;9.90;7.10;;;;;;;9.38;79.11;101746.09;5012600;28;20202;-71
2023/05/07 07:49:47;;;;;;;15.53;8.60;;;;;;;9.47;79.84;101760.19;5015930;28;20239;-69
2023/05/07 07:52:13;;;;;;;8.07;5.83;;;;;;;9.53;78.82;101763.56;5020281;28;20627;-69
2023/05/07 07:54:40;;;;;;;7.07;5.43;;;;;;;9.61;80.06;101760.22;4992680;28;20987;-68
2023/05/07 07:57:07;;;;;;;8.80;5.50;;;;;;;9.67;79.33;101759.06;5000733;28;20215;-70
2023/05/07 07:59:36;;;;;;;7.17;4.97;;;;;;;9.71;79.49;101763.50;5009431;28;20220;-70
2023/05/07 08:02:03;;;;;;;7.50;5.17;;;;;;;9.73;77.86;101765.84;5012771;28;20199;-68
2023/05/07 08:04:32;;;;;;;8.33;5.60;;;;;;;9.77;77.43;101769.44;4999623;28;20692;-69
2023/05/07 08:07:02;;;;;;;5.73;5.10;;;;;;;9.82;78.28;101764.06;5013361;28;20862;-68
2023/05/07 08:09:30;;;;;;;5.73;4.93;;;;;;;9.87;79.33;101772.69;5018829;28;20234;-70
2023/05/07 08:12:00;;;;;;;6.07;4.50;;;;;;;9.88;79.19;101757.66;5014712;28;20351;-68
2023/05/07 08:14:28;;;;;;;6.77;4.47;;;;;;;9.91;78.69;101775.53;5021855;28;20250;-69
2023/05/07 08:16:54;;;;;;;5.47;4.17;;;;;;;9.95;79.50;101769.38;5018367;28;20220;-68
2023/05/07 08:19:22;;;;;;;5.37;4.50;;;;;;;9.96;77.71;101767.53;5018593;28;20527;-68
2023/05/07 08:21:50;;;;;;;4.57;3.93;;;;;;;10.00;78.88;101779.06;5015422;28;20661;-70
2023/05/07 08:24:19;;;;;;;4.47;4.07;;;;;;;10.02;79.36;101777.69;5003686;28;20232;-68
2023/05/07 08:26:46;;;;;;;9.63;4.33;;;;;;;10.04;77.74;101785.34;4998504;28;20213;-69
2023/05/07 08:29:13;;;;;;;5.47;4.00;;;;;;;10.06;76.61;101781.34;4997644;28;20256;-70
2023/05/07 08:31:40;;;;;;;5.93;4.37;;;;;;;10.13;77.08;101788.88;5014680;28;20236;-70
2023/05/07 08:34:09;;;;;;;4.40;3.80;;;;;;;10.18;77.75;101783.50;5013426;28;20232;-69
2023/05/07 08:36:38;;;;;;;5.03;3.70;;;;;;;10.20;76.80;101781.34;5015535;28;20734;-70
2023/05/07 08:39:06;;;;;;;6.87;4.10;;;;;;;10.25;78.03;101789.19;4996928;28;20731;-70
2023/05/07 08:41:33;;;;;;;5.43;3.80;;;;;;;10.25;75.17;101797.88;5011350;28;20200;-69
2023/05/07 08:44:03;;;;;;;4.30;3.80;;;;;;;10.32;78.08;101800.91;5004063;28;22351;-69
2023/05/07 08:46:33;;;;;;;5.80;3.80;;;;;;;10.33;77.81;101791.91;5014265;28;20218;-70
2023/05/07 08:48:59;;;;;;;3.53;3.23;;;;;;;10.34;77.79;101793.47;5004174;28;20693;-70
2023/05/07 08:51:27;;;;;;;4.23;3.83;;;;;;;10.35;78.86;101791.63;5014993;28;20219;-69
2023/05/07 08:53:53;;;;;;;3.70;3.40;;;;;;;10.35;78.09;101789.75;4999637;28;20645;-70
2023/05/07 08:56:29;;;;;;;5.07;3.30;;;;;;;10.38;79.13;101797.09;5007008;28;20695;-70
2023/05/07 08:58:58;;;;;;;4.73;3.30;;;;;;;10.42;78.55;101799.94;5009471;28;20236;-68
2023/05/07 09:01:26;;;;;;;3.50;3.20;;;;;;;10.49;75.75;101800.31;4993654;28;20275;-70
2023/05/07 09:03:55;;;;;;;4.07;2.97;;;;;;;10.58;78.43;101791.41;5019639;28;20208;-70
2023/05/07 09:06:23;;;;;;;4.07;3.30;;;;;;;10.72;80.41;101791.38;5013804;28;20303;-69
2023/05/07 09:08:51;;;;;;;4.40;3.50;;;;;;;10.81;78.09;101797.53;4999602;28;20315;-69
2023/05/07 09:11:21;;;;;;;4.97;3.53;;;;;;;10.96;76.71;101797.19;4998657;28;21203;-70
2023/05/07 09:13:49;;;;;;;3.70;3.23;;;;;;;11.08;74.79;101795.56;4994777;28;20217;-70
2023/05/07 09:16:16;;;;;;;4.60;3.20;;;;;;;11.18;71.81;101792.72;4998322;28;20268;-69
2023/05/07 09:18:52;;;;;;;3.53;3.00;;;;;;;11.30;75.62;101787.69;4997371;28;20236;-70
2023/05/07 09:21:20;;;;;;;11.53;9.13;;;;;;;11.36;73.59;101788.34;5005401;28;20296;-69
2023/05/07 09:23:49;;;;;;;5.77;4.63;;;;;;;11.45;70.93;101789.94;5013682;28;20203;-69
2023/05/07 09:26:16;;;;;;;4.50;2.70;;;;;;;11.58;76.46;101790.97;5003790;28;20233;-71
2023/05/07 09:28:44;;;;;;;6.33;3.73;;;;;;;11.64;71.79;101800.38;5018086;28;20231;-69
2023/05/07 09:31:14;;;;;;;2.30;2.10;;;;;;;11.74;75.05;101795.59;5001122;28;20198;-68
2023/05/07 09:33:41;;;;;;;3.20;2.47;;;;;;;11.83;73.05;101804.38;5006912;28;20211;-71
2023/05/07 09:36:10;;;;;;;12.40;5.53;;;;;;;12.00;74.47;101793.09;4995856;28;20744;-71
2023/05/07 09:38:40;;;;;;;3.43;2.70;;;;;;;12.17;72.41;101806.41;5010277;28;20204;-69
2023/05/07 09:41:07;;;;;;;3.47;2.60;;;;;;;12.33;74.24;101810.19;4993048;28;20211;-71
2023/05/07 09:43:41;;;;;;;4.53;3.60;;;;;;;12.45;71.77;101818.31;4995405;28;21121;-71
2023/05/07 09:46:14;;;;;;;3.63;2.43;;;;;;;12.52;74.61;101810.72;5015710;28;20204;-71
2023/05/07 09:48:45;;;;;;;3.33;2.90;;;;;;;12.53;72.97;101818.34;5020905;28;20304;-71
2023/05/07 09:51:22;;;;;;;3.47;2.93;;;;;;;12.49;68.01;101811.34;5002010;28;21363;-70
2023/05/07 09:53:49;;;;;;;4.77;3.00;;;;;;;12.50;72.58;101811.03;5020180;28;20203;-70
2023/05/07 09:56:16;;;;;;;6.00;3.40;;;;;;;12.49;69.74;101806.03;4998554;28;20248;-70
2023/05/07 09:58:44;;;;;;;3.70;3.40;;;;;;;12.51;70.30;101803.84;5019527;28;20207;-71
2023/05/07 10:01:12;;;;;;;3.30;3.00;;;;;;;12.57;74.06;101818.53;5019695;28;20197;-71
2023/05/07 10:03:45;;;;;;;4.00;2.80;;;;;;;12.59;71.30;101819.78;4999230;28;20215;-71
2023/05/07 10:06:13;;;;;;;3.87;3.07;;;;;;;12.67;72.11;101821.66;5003708;28;20208;-69
2023/05/07 10:08:40;;;;;;;4.37;3.20;;;;;;;12.64;69.77;101819.66;5003017;28;20207;-71
2023/05/07 10:11:08;;;;;;;3.57;2.70;;;;;;;12.59;69.00;101833.03;5002283;28;20193;-71
2023/05/07 10:13:37;;;;;;;3.53;3.20;;;;;;;12.51;71.06;101830.34;5024093;28;21142;-69
2023/05/07 10:16:05;;;;;;;4.30;3.40;;;;;;;12.51;72.13;101828.47;4998877;28;20217;-69
2023/05/07 10:18:38;;;;;;;3.67;3.20;;;;;;;12.40;71.68;101829.84;5002028;28;20267;-71
2023/05/07 10:21:17;;;;;;;4.27;3.47;;;;;;;12.31;68.55;101833.56;4999005;28;20372;-69
2023/05/07 10:23:46;;;;;;;3.90;3.43;;;;;;;12.28;70.20;101840.25;5006075;28;20230;-71
2023/05/07 10:26:14;;;;;;;4.00;3.20;;;;;;;12.21;68.59;101834.59;5006726;28;20557;-71
2023/05/07 10:28:45;;;;;;;3.03;2.70;;;;;;;12.19;72.15;101831.50;5011063;28;20298;-71
2023/05/07 10:31:26;;;;;;;3.27;2.87;;;;;;;12.11;72.53;101828.81;5005049;28;20224;-70
2023/05/07 10:33:57;;;;;;;4.10;3.00;;;;;;;12.02;69.93;101828.78;5011834;28;20219;-70
2023/05/07 10:36:26;;;;;;;3.80;3.40;;;;;;;11.96;69.91;101826.56;5025316;28;20250;-70
2023/05/07 10:38:53;;;;;;;4.73;4.10;;;;;;;11.87;67.13;101834.47;5020089;28;20234;-70
2023/05/07 10:41:21;;;;;;;5.90;4.53;;;;;;;11.80;67.98;101833.31;5000683;28;20217;-68
2023/05/07 10:43:48;;;;;;;4.20;3.80;;;;;;;11.75;66.84;101839.50;5012982;28;20223;-71
2023/05/07 10:46:28;;;;;;;7.87;5.17;;;;;;;11.75;70.95;101839.50;4999846;28;20203;-71
2023/05/07 10:49:12;;;;;;;5.73;3.37;;;;;;;11.73;68.82;101840.88;5018303;28;20302;-70
2023/05/07 10:51:48;;;;;;;3.80;3.40;;;;;;;11.69;68.48;101843.34;4996461;28;20224;-70
2023/05/07 10:54:23;;;;;;;4.13;2.73;;;;;;;11.65;70.12;101839.75;5012685;28;20768;-70
2023/05/07 10:57:33;;;;;;;3.27;2.97;;;;;;;11.67;71.25;101842.09;5011458;28;20221;-70
2023/05/07 11:00:44;;;;;;;2.83;2.50;;;;;;;11.67;72.32;101842.88;4993031;28;20235;-71
2023/05/07 11:03:17;;;;;;;3.60;2.70;;;;;;;11.66;68.40;101840.53;5012791;28;20258;-68
2023/05/07 11:06:10;;;;;;;3.67;3.20;;;;;;;11.60;66.12;101839.88;5001838;28;20234;-71
2023/05/07 11:08:55;;;;;;;2.97;2.60;;;;;;;11.64;67.90;101848.00;5023341;28;20215;-69
2023/05/07 11:11:45;;;;;;;3.30;2.80;;;;;;;11.67;70.69;101839.44;5003961;28;20300;-70
2023/05/07 11:14:46;;;;;;;5.77;2.90;;;;;;;11.69;68.12;101840.72;5005246;28;20752;-70
2023/05/07 11:17:17;;;;;;;3.57;3.17;;;;;;;11.73;68.26;101840.88;5002492;28;20211;-70
2023/05/07 11:19:51;;;;;;;3.57;3.10;;;;;;;11.77;70.55;101849.78;5017061;28;20253;-70
2023/05/07 11:22:39;;;;;;;3.50;3.20;;;;;;;11.82;71.02;101849.66;4996867;28;20225;-70
2023/05/07 11:25:26;;;;;;;4.10;3.07;;;;;;;11.85;70.45;101838.50;5004295;28;20334;-70
2023/05/07 11:28:10;;;;;;;3.60;3.07;;;;;;;11.96;69.61;101824.66;5000971;28;20199;-71
2023/05/07 11:30:43;;;;;;;3.63;3.17;;;;;;;12.02;68.68;101831.41;4988170;28;20272;-71
2023/05/07 11:33:12;;;;;;;4.60;3.00;;;;;;;12.09;69.60;101844.19;4979480;28;20258;-70
2023/05/07 11:35:43;;;;;;;3.53;3.23;;;;;;;12.11;71.95;101840.16;5001477;28;20257;-70
2023/05/07 11:38:12;;;;;;;5.70;3.17;;;;;;;12.12;69.29;101844.38;4998690;28;20207;-71
2023/05/07 11:40:49;;;;;;;4.07;2.83;;;;;;;12.10;69.31;101841.25;5003601;28;20259;-69